Time,TemperatureF,DewpointF,PressureIn,WindDirection,WindDirectionDegrees,WindSpeedMPH,WindSpeedGustMPH,Humidity,HourlyPrecipIn,Conditions,Clouds,dailyrainin,SoftwareType,DateUTC
2013-02-12 00:06:00,43.7,41.2,29.64,West,270,3.7,-999.0,91,-99.99,,,0.00,Acu-Link.com,2013-02-12 05:06:00,
2013-02-12 00:22:00,43.5,41.1,29.65,West,270,3.2,-999.0,91,-99.99,,,0.00,Acu-Link.com,2013-02-12 05:22:00,
2013-02-12 00:37:00,43.7,41.0,29.64,West,270,2.2,-999.0,90,-99.99,,,0.00,Acu-Link.com,2013-02-12 05:37:00,
2013-02-12 00:52:00,43.5,40.8,29.64,West,270,3.2,-999.0,90,-99.99,,,0.00,Acu-Link.com,2013-02-12 05:52:00,
2013-02-12 01:07:00,43.9,40.6,29.64,West,270,1.7,-999.0,88,-99.99,,,0.00,Acu-Link.com,2013-02-12 06:07:00,
2013-02-12 01:22:00,43.7,39.8,29.64,WSW,247,3.7,-999.0,86,-99.99,,,0.00,Acu-Link.com,2013-02-12 06:22:00,
2013-02-12 01:38:00,43.3,35.9,29.66,WSW,247,6.8,-999.0,75,-99.99,,,0.00,Acu-Link.com,2013-02-12 06:38:00,
2013-02-12 01:53:00,43.0,32.8,29.66,West,270,6.8,-999.0,67,-99.99,,,0.00,Acu-Link.com,2013-02-12 06:53:00,
2013-02-12 02:08:00,42.3,30.6,29.67,SSW,202,5.3,-999.0,63,-99.99,,,0.00,Acu-Link.com,2013-02-12 07:08:00,
2013-02-12 02:23:00,42.3,30.2,29.67,WNW,292,5.3,-999.0,62,-99.99,,,0.00,Acu-Link.com,2013-02-12 07:23:00,
2013-02-12 02:39:00,41.5,29.5,29.67,West,270,6.3,-999.0,62,-99.99,,,0.00,Acu-Link.com,2013-02-12 07:39:00,
2013-02-12 02:56:00,41.4,29.4,29.68,SW,225,7.3,-999.0,62,-99.99,,,0.00,Acu-Link.com,2013-02-12 07:56:00,
2013-02-12 03:21:00,41.4,29.0,29.68,SW,225,9.9,-999.0,61,-99.99,,,0.00,Acu-Link.com,2013-02-12 08:21:00,
2013-02-12 03:36:00,41.2,29.6,29.68,WNW,292,4.7,-999.0,63,-99.99,,,0.00,Acu-Link.com,2013-02-12 08:36:00,
2013-02-12 03:51:00,40.8,28.8,29.68,WSW,247,6.8,-999.0,62,-99.99,,,0.00,Acu-Link.com,2013-02-12 08:51:00,
2013-02-12 04:19:00,41.0,28.6,29.68,WNW,292,5.3,-999.0,61,-99.99,,,0.00,Acu-Link.com,2013-02-12 09:19:00,
2013-02-12 04:34:00,41.0,29.0,29.69,West,270,5.3,-999.0,62,-99.99,,,0.00,Acu-Link.com,2013-02-12 09:34:00,
2013-02-12 04:49:00,40.8,29.2,29.70,SW,225,5.3,-999.0,63,-99.99,,,0.00,Acu-Link.com,2013-02-12 09:49:00,
2013-02-12 05:04:00,40.6,28.6,29.71,WNW,292,6.3,-999.0,62,-99.99,,,0.00,Acu-Link.com,2013-02-12 10:04:00,
2013-02-12 05:20:00,40.5,28.9,29.70,West,270,4.7,-999.0,63,-99.99,,,0.00,Acu-Link.com,2013-02-12 10:20:00,
2013-02-12 05:35:00,39.9,28.7,29.71,WSW,247,6.3,-999.0,64,-99.99,,,0.00,Acu-Link.com,2013-02-12 10:35:00,
2013-02-12 05:50:00,40.1,28.5,29.70,WNW,292,6.3,-999.0,63,-99.99,,,0.00,Acu-Link.com,2013-02-12 10:50:00,
2013-02-12 06:05:00,40.6,28.2,29.71,NW,315,8.9,-999.0,61,-99.99,,,0.00,Acu-Link.com,2013-02-12 11:05:00,
2013-02-12 06:20:00,40.8,28.4,29.72,West,270,9.9,-999.0,61,-99.99,,,0.00,Acu-Link.com,2013-02-12 11:20:00,
2013-02-12 06:36:00,41.2,28.8,29.72,SSW,202,2.7,-999.0,61,-99.99,,,0.00,Acu-Link.com,2013-02-12 11:36:00,
2013-02-12 06:51:00,41.2,28.4,29.73,NW,315,6.8,-999.0,60,-99.99,,,0.00,Acu-Link.com,2013-02-12 11:51:00,
2013-02-12 07:06:00,41.0,28.2,29.73,West,270,5.8,-999.0,60,-99.99,,,0.00,Acu-Link.com,2013-02-12 12:06:00,
2013-02-12 07:21:00,40.8,27.6,29.74,WSW,247,8.9,-999.0,59,-99.99,,,0.00,Acu-Link.com,2013-02-12 12:21:00,
2013-02-12 07:36:00,40.8,27.6,29.75,West,270,8.3,-999.0,59,-99.99,,,0.00,Acu-Link.com,2013-02-12 12:36:00,
2013-02-12 07:52:00,41.2,27.6,29.75,West,270,4.7,-999.0,58,-99.99,,,0.00,Acu-Link.com,2013-02-12 12:52:00,
2013-02-12 08:07:00,41.2,27.6,29.75,NW,315,5.3,-999.0,58,-99.99,,,0.00,Acu-Link.com,2013-02-12 13:07:00,
2013-02-12 08:22:00,41.2,28.0,29.76,SW,225,5.8,-999.0,59,-99.99,,,0.00,Acu-Link.com,2013-02-12 13:22:00,
2013-02-12 08:37:00,41.4,27.7,29.76,SSW,202,4.7,-999.0,58,-99.99,,,0.00,Acu-Link.com,2013-02-12 13:37:00,
2013-02-12 08:52:00,41.7,27.6,29.77,North,0,3.2,-999.0,57,-99.99,,,0.00,Acu-Link.com,2013-02-12 13:52:00,
2013-02-12 09:08:00,42.1,27.5,29.79,West,270,5.3,-999.0,56,-99.99,,,0.00,Acu-Link.com,2013-02-12 14:08:00,
2013-02-12 09:23:00,43.2,28.1,29.78,SW,225,6.3,-999.0,55,-99.99,,,0.00,Acu-Link.com,2013-02-12 14:23:00,
2013-02-12 09:38:00,43.0,27.5,29.78,NW,315,10.9,-999.0,54,-99.99,,,0.00,Acu-Link.com,2013-02-12 14:38:00,
2013-02-12 09:53:00,43.2,27.7,29.78,West,270,6.8,-999.0,54,-99.99,,,0.00,Acu-Link.com,2013-02-12 14:53:00,
2013-02-12 10:08:00,43.5,27.5,29.79,SE,135,4.7,-999.0,53,-99.99,,,0.00,Acu-Link.com,2013-02-12 15:08:00,
2013-02-12 10:24:00,43.5,27.1,29.79,WNW,292,8.9,-999.0,52,-99.99,,,0.00,Acu-Link.com,2013-02-12 15:24:00,
2013-02-12 10:39:00,43.9,27.4,29.80,WSW,247,10.4,-999.0,52,-99.99,,,0.00,Acu-Link.com,2013-02-12 15:39:00,
2013-02-12 10:54:00,44.4,27.9,29.80,West,270,10.9,-999.0,52,-99.99,,,0.00,Acu-Link.com,2013-02-12 15:54:00,
2013-02-12 11:09:00,43.9,27.4,29.80,NW,315,4.7,-999.0,52,-99.99,,,0.00,Acu-Link.com,2013-02-12 16:09:00,
2013-02-12 11:24:00,44.2,28.2,29.80,NNW,337,6.3,-999.0,53,-99.99,,,0.00,Acu-Link.com,2013-02-12 16:24:00,
2013-02-12 11:39:00,45.0,28.0,29.81,WSW,247,9.4,-999.0,51,-99.99,,,0.00,Acu-Link.com,2013-02-12 16:39:00,
2013-02-12 11:55:00,44.8,27.8,29.81,West,270,7.3,-999.0,51,-99.99,,,0.00,Acu-Link.com,2013-02-12 16:55:00,
2013-02-12 12:10:00,44.8,27.8,29.81,West,270,6.8,-999.0,51,-99.99,,,0.00,Acu-Link.com,2013-02-12 17:10:00,
2013-02-12 12:25:00,45.0,28.0,29.81,SSW,202,4.2,-999.0,51,-99.99,,,0.00,Acu-Link.com,2013-02-12 17:25:00,
2013-02-12 12:40:00,45.5,28.0,29.81,West,270,8.3,-999.0,50,-99.99,,,0.00,Acu-Link.com,2013-02-12 17:40:00,
2013-02-12 12:55:00,45.0,28.0,29.81,SW,225,7.3,-999.0,51,-99.99,,,0.00,Acu-Link.com,2013-02-12 17:55:00,
2013-02-12 13:11:00,44.8,27.8,29.81,West,270,2.2,-999.0,51,-99.99,,,0.00,Acu-Link.com,2013-02-12 18:11:00,
2013-02-12 13:26:00,46.6,29.0,29.81,NW,315,6.8,-999.0,50,-99.99,,,0.00,Acu-Link.com,2013-02-12 18:26:00,
2013-02-12 13:41:00,46.6,28.5,29.80,West,270,6.3,-999.0,49,-99.99,,,0.00,Acu-Link.com,2013-02-12 18:41:00,
2013-02-12 13:56:00,46.2,27.1,29.81,West,270,10.9,-999.0,47,-99.99,,,0.00,Acu-Link.com,2013-02-12 18:56:00,
2013-02-12 14:12:00,46.0,27.4,29.80,West,270,8.3,-999.0,48,-99.99,,,0.00,Acu-Link.com,2013-02-12 19:12:00,
2013-02-12 14:27:00,46.4,27.8,29.80,WNW,292,7.3,-999.0,48,-99.99,,,0.00,Acu-Link.com,2013-02-12 19:27:00,
2013-02-12 14:42:00,44.6,26.6,29.80,NW,315,10.4,-999.0,49,-99.99,,,0.00,Acu-Link.com,2013-02-12 19:42:00,
2013-02-12 14:57:00,45.5,27.0,29.80,NNW,337,11.9,-999.0,48,-99.99,,,0.00,Acu-Link.com,2013-02-12 19:57:00,
2013-02-12 15:12:00,45.7,27.1,29.80,WSW,247,6.3,-999.0,48,-99.99,,,0.00,Acu-Link.com,2013-02-12 20:12:00,
2013-02-12 15:28:00,45.1,27.1,29.80,SW,225,4.2,-999.0,49,-99.99,,,0.00,Acu-Link.com,2013-02-12 20:28:00,
2013-02-12 15:43:00,44.8,27.3,29.78,NW,315,4.2,-999.0,50,-99.99,,,0.00,Acu-Link.com,2013-02-12 20:43:00,
2013-02-12 15:58:00,45.0,27.5,29.78,North,0,7.8,-999.0,50,-99.99,,,0.00,Acu-Link.com,2013-02-12 20:58:00,
2013-02-12 16:13:00,45.0,27.0,29.76,WNW,292,10.9,-999.0,49,-99.99,,,0.00,Acu-Link.com,2013-02-12 21:13:00,
2013-02-12 16:29:00,44.2,26.8,29.73,SW,225,4.2,-999.0,50,-99.99,,,0.00,Acu-Link.com,2013-02-12 21:29:00,
2013-02-12 16:44:00,44.1,26.7,29.74,West,270,4.7,-999.0,50,-99.99,,,0.00,Acu-Link.com,2013-02-12 21:44:00,
2013-02-12 16:59:00,43.3,27.3,29.78,West,270,5.3,-999.0,53,-99.99,,,0.00,Acu-Link.com,2013-02-12 21:59:00,
2013-02-12 17:15:00,42.8,26.9,29.80,West,270,6.8,-999.0,53,-99.99,,,0.00,Acu-Link.com,2013-02-12 22:15:00,
2013-02-12 17:30:00,42.3,26.9,29.80,WSW,247,5.3,-999.0,54,-99.99,,,0.00,Acu-Link.com,2013-02-12 22:30:00,
2013-02-12 17:45:00,42.6,26.7,29.86,WNW,292,2.2,-999.0,53,-99.99,,,0.00,Acu-Link.com,2013-02-12 22:45:00,
2013-02-12 18:00:00,42.4,27.8,29.85,WNW,292,6.8,-999.0,56,-99.99,,,0.00,Acu-Link.com,2013-02-12 23:00:00,
2013-02-12 18:16:00,42.1,27.1,29.89,West,270,2.7,-999.0,55,-99.99,,,0.00,Acu-Link.com,2013-02-12 23:16:00,
2013-02-12 18:31:00,41.5,26.6,29.87,West,270,5.3,-999.0,55,-99.99,,,0.00,Acu-Link.com,2013-02-12 23:31:00,
2013-02-12 18:46:00,41.4,26.5,29.88,South,180,2.2,-999.0,55,-99.99,,,0.00,Acu-Link.com,2013-02-12 23:46:00,
2013-02-12 19:02:00,41.2,26.7,29.87,West,270,2.7,-999.0,56,-99.99,,,0.00,Acu-Link.com,2013-02-13 00:02:00,
2013-02-12 19:17:00,41.2,26.3,29.88,West,270,7.8,-999.0,55,-99.99,,,0.00,Acu-Link.com,2013-02-13 00:17:00,
2013-02-12 19:32:00,41.2,26.3,29.88,WNW,292,11.4,-999.0,55,-99.99,,,0.00,Acu-Link.com,2013-02-13 00:32:00,
2013-02-12 19:48:00,41.2,25.8,29.89,NW,315,8.3,-999.0,54,-99.99,,,0.00,Acu-Link.com,2013-02-13 00:48:00,
2013-02-12 20:03:00,40.6,26.1,29.89,WSW,247,3.2,-999.0,56,-99.99,,,0.00,Acu-Link.com,2013-02-13 01:03:00,
2013-02-12 20:18:00,40.6,25.7,29.88,West,270,5.3,-999.0,55,-99.99,,,0.00,Acu-Link.com,2013-02-13 01:18:00,
2013-02-12 20:33:00,40.3,25.9,29.87,SSW,202,4.2,-999.0,56,-99.99,,,0.00,Acu-Link.com,2013-02-13 01:33:00,
2013-02-12 20:48:00,39.9,25.9,29.86,WNW,292,6.8,-999.0,57,-99.99,,,0.00,Acu-Link.com,2013-02-13 01:48:00,
2013-02-12 21:04:00,39.9,26.3,29.86,WSW,247,5.3,-999.0,58,-99.99,,,0.00,Acu-Link.com,2013-02-13 02:04:00,
2013-02-12 21:19:00,39.6,26.1,29.85,NNE,22,2.7,-999.0,58,-99.99,,,0.00,Acu-Link.com,2013-02-13 02:19:00,
2013-02-12 21:34:00,39.0,25.9,29.84,SW,225,1.7,-999.0,59,-99.99,,,0.00,Acu-Link.com,2013-02-13 02:34:00,
2013-02-12 21:49:00,39.2,26.1,29.84,WSW,247,4.2,-999.0,59,-99.99,,,0.00,Acu-Link.com,2013-02-13 02:49:00,
2013-02-12 22:04:00,38.7,26.0,29.84,SW,225,3.2,-999.0,60,-99.99,,,0.00,Acu-Link.com,2013-02-13 03:04:00,
2013-02-12 22:19:00,38.5,25.8,29.83,WNW,292,5.3,-999.0,60,-99.99,,,0.00,Acu-Link.com,2013-02-13 03:19:00,
2013-02-12 22:34:00,38.3,25.6,29.84,WNW,292,5.3,-999.0,60,-99.99,,,0.00,Acu-Link.com,2013-02-13 03:34:00,
2013-02-12 22:50:00,37.9,25.3,29.83,West,270,2.7,-999.0,60,-99.99,,,0.00,Acu-Link.com,2013-02-13 03:50:00,
2013-02-12 23:05:00,38.1,25.5,29.85,SSW,202,2.7,-999.0,60,-99.99,,,0.00,Acu-Link.com,2013-02-13 04:05:00,
2013-02-12 23:20:00,37.9,25.7,29.85,NW,315,6.3,-999.0,61,-99.99,,,0.00,Acu-Link.com,2013-02-13 04:20:00,
2013-02-12 23:35:00,37.8,25.6,29.85,WNW,292,4.2,-999.0,61,-99.99,,,0.00,Acu-Link.com,2013-02-13 04:35:00,
2013-02-12 23:51:00,37.6,25.8,29.86,SSW,202,3.7,-999.0,62,-99.99,,,0.00,Acu-Link.com,2013-02-13 04:51:00,